createdAt,value
2018-06-08T00:00:23.530Z,66.47
2018-06-08T00:02:58.073Z,65.00
2018-06-08T00:05:33.076Z,60.90
2018-06-08T00:08:07.781Z,61.50
2018-06-08T00:10:43.282Z,63.37
2018-06-08T00:13:18.221Z,63.57
2018-06-08T00:15:52.991Z,61.43
2018-06-08T00:18:28.136Z,59.60
2018-06-08T00:21:03.228Z,61.10
2018-06-08T00:23:37.971Z,60.23
2018-06-08T00:26:12.726Z,60.30
2018-06-08T00:28:47.910Z,60.33
2018-06-08T00:31:22.385Z,61.70
2018-06-08T00:33:57.567Z,63.03
2018-06-08T00:36:32.516Z,61.67
2018-06-08T00:39:11.998Z,60.43
2018-06-08T00:41:46.954Z,61.60
2018-06-08T00:44:21.395Z,60.60
2018-06-08T00:46:55.338Z,60.87
2018-06-08T00:49:30.134Z,61.40
2018-06-08T00:52:05.008Z,65.73
2018-06-08T00:54:40.035Z,64.03
2018-06-08T00:57:15.063Z,64.33
2018-06-08T00:59:50.019Z,61.83
2018-06-08T01:02:24.935Z,62.00
2018-06-08T01:05:02.717Z,63.40
2018-06-08T01:07:37.439Z,61.13
2018-06-08T01:10:12.182Z,66.33
2018-06-08T01:12:47.048Z,63.53
2018-06-08T01:15:21.939Z,66.27
2018-06-08T01:17:56.855Z,65.33
2018-06-08T01:20:31.771Z,75.67
2018-06-08T01:23:06.938Z,78.17
2018-06-08T01:25:41.892Z,83.27
2018-06-08T01:28:16.692Z,77.73
2018-06-08T01:30:51.717Z,83.53
2018-06-08T01:33:26.695Z,86.70
2018-06-08T01:36:01.705Z,85.43
2018-06-08T01:38:36.781Z,86.40
2018-06-08T01:41:11.793Z,82.90
2018-06-08T01:43:46.594Z,89.00
2018-06-08T01:46:21.368Z,80.57
2018-06-08T01:48:56.522Z,83.97
2018-06-08T01:51:31.488Z,85.60
2018-06-08T01:54:06.295Z,96.00
2018-06-08T01:56:41.165Z,90.50
2018-06-08T01:59:16.457Z,90.33
2018-06-08T02:01:51.276Z,92.00
2018-06-08T02:04:26.192Z,88.47
2018-06-08T02:07:01.045Z,87.73
2018-06-08T02:09:30.277Z,88.70
2018-06-08T02:12:05.097Z,81.87
2018-06-08T02:14:40.040Z,81.93
2018-06-08T02:17:14.778Z,90.43
2018-06-08T02:19:49.708Z,90.93
2018-06-08T02:22:24.801Z,88.33
2018-06-08T02:24:59.524Z,90.50
2018-06-08T02:27:34.441Z,90.40
2018-06-08T02:30:09.619Z,89.50
2018-06-08T02:32:44.552Z,87.50
2018-06-08T02:35:19.534Z,88.97
2018-06-08T02:37:54.471Z,81.37
2018-06-08T02:40:29.357Z,91.10
2018-06-08T02:43:04.347Z,87.50
2018-06-08T02:45:39.135Z,84.80
2018-06-08T02:48:13.962Z,86.53
2018-06-08T02:50:48.713Z,91.60
2018-06-08T02:53:23.719Z,89.40
2018-06-08T02:55:58.792Z,90.93
2018-06-08T02:58:27.638Z,91.10
2018-06-08T03:01:02.415Z,95.43
2018-06-08T03:03:37.445Z,91.00
2018-06-08T03:06:13.029Z,94.50
2018-06-08T03:08:47.810Z,95.40
2018-06-08T03:11:22.651Z,99.27
2018-06-08T03:13:57.455Z,96.57
2018-06-08T03:16:32.315Z,96.53
2018-06-08T03:19:07.296Z,89.83
2018-06-08T03:21:42.204Z,92.63
2018-06-08T03:24:17.014Z,88.20
2018-06-08T03:26:51.842Z,81.27
2018-06-08T03:29:26.702Z,77.10
2018-06-08T03:32:01.479Z,85.53
2018-06-08T03:34:36.153Z,77.93
2018-06-08T03:37:10.976Z,74.50
2018-06-08T03:39:45.820Z,68.50
2018-06-08T03:42:15.768Z,66.20
2018-06-08T03:44:50.509Z,64.27
2018-06-08T03:47:25.995Z,59.90
2018-06-08T03:50:00.683Z,59.20
2018-06-08T03:52:35.361Z,54.23
2018-06-08T03:55:10.907Z,55.07
2018-06-08T03:57:45.728Z,54.20
2018-06-08T04:00:20.793Z,55.37
2018-06-08T04:02:55.602Z,54.23
2018-06-08T04:05:30.209Z,55.10
2018-06-08T04:08:05.173Z,44.03
2018-06-08T04:10:40.055Z,45.87
2018-06-08T04:13:15.195Z,46.57
2018-06-08T04:15:50.555Z,47.53
2018-06-08T04:18:25.421Z,43.93
2018-06-08T04:21:00.150Z,41.93
2018-06-08T04:23:35.322Z,42.33
2018-06-08T04:26:12.407Z,37.57
2018-06-08T04:28:47.278Z,41.47
2018-06-08T04:31:21.741Z,39.23
2018-06-08T04:33:57.114Z,41.27
2018-06-08T04:36:32.438Z,42.57
2018-06-08T04:39:09.151Z,40.40
2018-06-08T04:41:44.098Z,38.50
2018-06-08T04:44:18.834Z,39.00
2018-06-08T04:46:53.748Z,36.73
2018-06-08T04:49:28.675Z,37.87
2018-06-08T04:52:03.570Z,38.03
2018-06-08T04:54:38.774Z,36.70
2018-06-08T04:57:13.800Z,34.83
2018-06-08T04:59:48.434Z,33.93
2018-06-08T05:02:23.312Z,34.10
2018-06-08T05:04:58.236Z,34.60
2018-06-08T05:07:33.230Z,38.63
2018-06-08T05:10:04.577Z,35.77
2018-06-08T05:12:33.822Z,35.60
2018-06-08T05:15:03.667Z,32.77
2018-06-08T05:17:32.870Z,34.23
2018-06-08T05:20:02.354Z,36.30
2018-06-08T05:22:37.113Z,35.17
2018-06-08T05:25:12.182Z,37.33
2018-06-08T05:27:47.028Z,35.83
2018-06-08T05:30:18.852Z,33.87
2018-06-08T05:32:48.476Z,33.50
2018-06-08T05:35:17.931Z,34.70
2018-06-08T05:37:53.024Z,36.40
2018-06-08T05:40:27.994Z,37.87
2018-06-08T05:43:20.234Z,36.60
2018-06-08T05:45:55.253Z,34.50
2018-06-08T05:48:24.545Z,32.77
2018-06-08T05:50:54.453Z,33.90
2018-06-08T05:53:23.823Z,34.20
2018-06-08T05:55:53.147Z,30.43
2018-06-08T05:58:28.612Z,25.03
2018-06-08T06:00:57.862Z,28.00
2018-06-08T06:03:32.843Z,29.80
2018-06-08T06:06:08.059Z,28.77
2018-06-08T06:08:42.996Z,29.50
2018-06-08T06:11:18.267Z,27.73
2018-06-08T06:13:53.320Z,24.97
2018-06-08T06:16:28.203Z,27.67
2018-06-08T06:19:03.284Z,27.10
2018-06-08T06:21:38.334Z,27.10
2018-06-08T06:24:13.038Z,25.30
2018-06-08T06:26:48.085Z,25.27
2018-06-08T06:29:23.459Z,25.70
2018-06-08T06:31:58.452Z,25.50
2018-06-08T06:34:33.270Z,26.37
2018-06-08T06:37:08.353Z,25.40
2018-06-08T06:39:43.326Z,26.27
2018-06-08T06:42:18.236Z,26.10
2018-06-08T06:44:53.245Z,25.73
2018-06-08T06:47:28.334Z,25.60
2018-06-08T06:50:03.240Z,25.60
2018-06-08T06:52:38.057Z,23.40
2018-06-08T06:55:13.659Z,24.90
2018-06-08T06:57:43.715Z,24.80
2018-06-08T07:00:18.645Z,24.17
2018-06-08T07:02:53.528Z,24.53
2018-06-08T07:05:28.477Z,25.00
2018-06-08T07:08:03.457Z,25.03
2018-06-08T07:10:38.441Z,21.50
2018-06-08T07:13:13.207Z,24.10
2018-06-08T07:15:48.163Z,22.87
2018-06-08T07:18:23.218Z,25.80
2018-06-08T07:20:57.691Z,25.53
2018-06-08T07:23:32.494Z,24.30
2018-06-08T07:26:07.415Z,24.30
2018-06-08T07:28:42.394Z,21.93
2018-06-08T07:31:17.192Z,23.27
2018-06-08T07:33:52.353Z,22.03
2018-06-08T07:36:27.491Z,23.50
2018-06-08T07:39:02.446Z,21.03
2018-06-08T07:41:37.582Z,20.43
2018-06-08T07:44:12.288Z,19.17
2018-06-08T07:46:47.263Z,19.27
2018-06-08T07:49:22.480Z,19.27
2018-06-08T07:51:56.839Z,19.83
2018-06-08T07:54:31.752Z,19.57
2018-06-08T07:57:06.598Z,19.30
2018-06-08T07:59:41.489Z,18.50
2018-06-08T08:02:16.424Z,20.17
2018-06-08T08:04:51.828Z,18.17
2018-06-08T08:07:26.682Z,19.50
2018-06-08T08:10:01.713Z,19.03
2018-06-08T08:12:36.532Z,21.77
2018-06-08T08:15:10.966Z,23.83
2018-06-08T08:17:45.369Z,24.27
2018-06-08T08:20:20.131Z,23.37
2018-06-08T08:22:54.968Z,24.30
2018-06-08T08:25:29.709Z,21.40
2018-06-08T08:28:04.750Z,20.80
2018-06-08T08:30:39.556Z,21.80
2018-06-08T08:33:14.223Z,21.13
2018-06-08T08:35:49.110Z,19.80
2018-06-08T08:38:23.873Z,18.77
2018-06-08T08:40:58.861Z,19.03
2018-06-08T08:43:33.741Z,21.10
2018-06-08T08:46:08.593Z,18.17
2018-06-08T08:48:43.509Z,15.90
2018-06-08T08:51:18.695Z,16.83
2018-06-08T08:53:53.310Z,13.30
2018-06-08T08:56:28.116Z,14.37
2018-06-08T08:59:03.193Z,14.07
2018-06-08T09:01:32.472Z,14.27
2018-06-08T09:04:07.464Z,14.90
2018-06-08T09:06:42.378Z,15.00
2018-06-08T09:09:17.227Z,16.47
2018-06-08T09:11:52.038Z,17.47
2018-06-08T09:14:26.980Z,18.50
2018-06-08T09:17:01.718Z,21.53
2018-06-08T09:19:36.782Z,24.30
2018-06-08T09:22:12.028Z,25.23
2018-06-08T09:24:46.905Z,24.33
2018-06-08T09:27:21.665Z,28.97
2018-06-08T09:29:56.704Z,32.90
2018-06-08T09:32:31.644Z,34.23
2018-06-08T09:35:06.486Z,34.07
2018-06-08T09:37:42.123Z,38.13
2018-06-08T09:40:12.061Z,34.17
2018-06-08T09:42:41.389Z,40.30
2018-06-08T09:45:10.963Z,37.83
2018-06-08T09:47:46.088Z,40.07
2018-06-08T09:50:21.775Z,34.00
2018-06-08T09:52:56.737Z,37.70
2018-06-08T09:55:31.616Z,38.97
2018-06-08T09:58:07.231Z,35.87
2018-06-08T10:00:43.058Z,36.00
2018-06-08T10:03:17.975Z,36.30
2018-06-08T10:05:52.515Z,34.77
2018-06-08T10:08:29.175Z,34.37
2018-06-08T10:10:58.768Z,33.80
2018-06-08T10:13:33.773Z,32.30
2018-06-08T10:16:09.359Z,39.63
2018-06-08T10:18:45.024Z,35.83
2018-06-08T10:21:20.389Z,33.90
2018-06-08T10:23:55.605Z,36.27
2018-06-08T10:26:32.227Z,39.57
2018-06-08T10:29:07.294Z,44.27
2018-06-08T10:31:42.299Z,42.80
2018-06-08T10:34:17.488Z,44.23
2018-06-08T10:36:52.730Z,42.97
2018-06-08T10:39:27.766Z,39.10
2018-06-08T10:41:57.219Z,38.20
2018-06-08T10:44:32.428Z,37.80
2018-06-08T10:47:08.511Z,28.45
2018-06-08T10:49:43.270Z,30.70
2018-06-08T10:52:18.119Z,30.50
2018-06-08T10:54:52.952Z,30.80
2018-06-08T10:57:31.180Z,31.10
2018-06-08T11:00:05.988Z,26.47
2018-06-08T11:02:41.019Z,27.77
2018-06-08T11:05:16.343Z,29.30
2018-06-08T11:07:51.241Z,28.07
2018-06-08T11:10:25.991Z,29.43
2018-06-08T11:13:00.780Z,27.70
2018-06-08T11:15:35.743Z,18.40
2018-06-08T11:18:10.779Z,20.20
2018-06-08T11:20:45.541Z,19.90
2018-06-08T11:23:20.722Z,17.70
2018-06-08T11:25:50.113Z,15.90
2018-06-08T11:28:19.714Z,15.83
2018-06-08T11:30:49.214Z,16.80
2018-06-08T11:33:18.542Z,18.37
2018-06-08T11:35:48.195Z,17.50
2018-06-08T11:38:17.662Z,15.90
2018-06-08T11:40:47.223Z,18.73
2018-06-08T11:43:17.367Z,18.93
2018-06-08T11:45:46.564Z,18.23
2018-06-08T11:48:15.945Z,20.50
2018-06-08T11:50:45.195Z,20.17
2018-06-08T11:53:14.611Z,19.73
2018-06-08T11:55:44.037Z,21.90
2018-06-08T11:58:13.482Z,21.90
2018-06-08T12:00:43.852Z,21.70
2018-06-08T12:03:13.089Z,21.57
2018-06-08T12:05:42.715Z,25.73
2018-06-08T12:08:12.061Z,25.00
2018-06-08T12:10:41.811Z,24.60
2018-06-08T12:13:11.079Z,27.90
2018-06-08T12:15:40.679Z,28.03
2018-06-08T12:18:10.008Z,27.30
2018-06-08T12:20:39.836Z,29.63
2018-06-08T12:23:09.651Z,28.90
2018-06-08T12:25:39.342Z,31.03
2018-06-08T12:28:08.573Z,33.20
2018-06-08T12:30:38.326Z,32.77
2018-06-08T12:33:07.871Z,36.80
2018-06-08T12:35:37.370Z,39.70
2018-06-08T12:38:06.779Z,44.00
2018-06-08T12:40:36.592Z,44.47
2018-06-08T12:43:06.977Z,42.17
2018-06-08T12:45:36.365Z,50.60
2018-06-08T12:48:05.580Z,48.67
2018-06-08T12:50:40.500Z,51.93
2018-06-08T12:53:15.404Z,52.20
2018-06-08T12:55:50.291Z,56.80
2018-06-08T12:58:25.630Z,55.23
2018-06-08T13:01:00.573Z,52.83
2018-06-08T13:03:35.419Z,54.90
2018-06-08T13:06:10.314Z,52.37
2018-06-08T13:08:50.630Z,58.20
2018-06-08T13:11:25.472Z,56.00
2018-06-08T13:14:00.327Z,55.60
2018-06-08T13:16:35.300Z,60.20
2018-06-08T13:19:10.363Z,58.13
2018-06-08T13:21:45.515Z,61.40
2018-06-08T13:24:21.105Z,62.70
2018-06-08T13:26:56.316Z,64.23
2018-06-08T13:29:31.375Z,69.80
2018-06-08T13:32:06.447Z,67.07
2018-06-08T13:34:41.510Z,68.30
2018-06-08T13:37:16.266Z,72.83
2018-06-08T13:39:51.082Z,74.80
2018-06-08T13:42:26.350Z,72.33
2018-06-08T13:45:01.449Z,74.40
2018-06-08T13:47:36.769Z,81.07
2018-06-08T13:50:11.530Z,78.43
2018-06-08T13:52:46.441Z,78.67
2018-06-08T13:55:24.913Z,91.83
2018-06-08T13:57:59.923Z,80.87
2018-06-08T14:00:39.164Z,83.10
2018-06-08T14:03:14.184Z,83.37
2018-06-08T14:05:49.450Z,81.70
2018-06-08T14:08:24.163Z,80.77
2018-06-08T14:10:59.275Z,89.13
2018-06-08T14:13:34.792Z,80.90
2018-06-08T14:16:09.772Z,78.33
2018-06-08T14:18:44.617Z,78.97
2018-06-08T14:21:19.969Z,84.10
2018-06-08T14:23:55.183Z,87.47
2018-06-08T14:26:30.321Z,85.60
2018-06-08T14:29:09.013Z,80.40
2018-06-08T14:31:44.103Z,91.00
2018-06-08T14:34:19.194Z,83.73
2018-06-08T14:36:54.121Z,83.90
2018-06-08T14:39:29.087Z,79.40
2018-06-08T14:42:04.055Z,79.43
2018-06-08T14:44:39.154Z,82.03
2018-06-08T14:47:13.693Z,75.77
2018-06-08T14:49:48.756Z,73.47
2018-06-08T14:52:27.069Z,69.13
2018-06-08T14:55:01.903Z,64.97
2018-06-08T14:57:37.010Z,63.00
2018-06-08T15:00:12.068Z,65.13
2018-06-08T15:02:47.085Z,61.73
2018-06-08T15:05:21.953Z,60.00
2018-06-08T15:07:57.574Z,63.90
2018-06-08T15:10:32.435Z,63.50
2018-06-08T15:13:07.346Z,66.30
2018-06-08T15:15:43.806Z,65.33
2018-06-08T15:18:19.017Z,66.27
2018-06-08T15:20:56.959Z,78.00
2018-06-08T15:23:27.592Z,78.07
2018-06-08T15:26:03.117Z,77.33
2018-06-08T15:28:38.323Z,76.93
2018-06-08T15:31:15.353Z,84.30
2018-06-08T15:33:50.204Z,82.97
2018-06-08T15:36:25.121Z,91.77
2018-06-08T15:39:00.666Z,84.47
2018-06-08T15:41:36.514Z,88.10
2018-06-08T15:44:12.027Z,82.17
2018-06-08T15:46:46.905Z,82.00
2018-06-08T15:49:16.545Z,84.17
2018-06-08T15:51:54.459Z,86.47
2018-06-08T15:54:29.532Z,80.30
2018-06-08T15:57:06.255Z,90.23
2018-06-08T15:59:42.058Z,87.90
2018-06-08T16:02:21.261Z,85.20
2018-06-08T16:04:57.704Z,81.40
2018-06-08T16:07:34.228Z,80.27
2018-06-08T16:10:11.113Z,77.97
2018-06-08T16:12:47.255Z,71.40
2018-06-08T16:15:22.510Z,76.07
2018-06-08T16:17:59.610Z,72.77
2018-06-08T16:20:29.022Z,73.67
2018-06-08T16:23:04.877Z,70.87
2018-06-08T16:25:40.590Z,76.13
2018-06-08T16:28:23.334Z,74.00
2018-06-08T16:30:59.726Z,75.03
2018-06-08T16:33:37.005Z,76.50
2018-06-08T16:36:11.931Z,75.77
2018-06-08T16:38:47.707Z,71.20
2018-06-08T16:41:23.051Z,76.03
2018-06-08T16:43:58.693Z,77.70
2018-06-08T16:46:33.802Z,76.47
2018-06-08T16:49:08.193Z,78.60
2018-06-08T16:51:43.263Z,76.60
2018-06-08T16:54:19.107Z,81.40
2018-06-08T16:56:54.173Z,82.13
2018-06-08T16:59:30.687Z,81.60
2018-06-08T17:02:06.051Z,76.10
2018-06-08T17:04:41.763Z,80.83
2018-06-08T17:07:16.687Z,83.70
2018-06-08T17:09:51.740Z,79.00
2018-06-08T17:12:27.540Z,73.83
2018-06-08T17:15:03.070Z,74.17
2018-06-08T17:17:38.387Z,73.80
2018-06-08T17:20:13.525Z,75.53
2018-06-08T17:22:48.675Z,67.53
2018-06-08T17:25:23.571Z,70.60
2018-06-08T17:27:59.331Z,70.73
2018-06-08T17:30:34.382Z,72.67
2018-06-08T17:33:10.360Z,71.87
2018-06-08T17:35:45.523Z,65.47
2018-06-08T17:38:20.503Z,63.87
2018-06-08T17:40:56.541Z,65.70
2018-06-08T17:43:31.684Z,72.90
2018-06-08T17:46:06.825Z,64.50
2018-06-08T17:48:41.879Z,66.00
2018-06-08T17:51:17.603Z,65.57
2018-06-08T17:53:52.627Z,67.97
2018-06-08T17:56:27.977Z,66.10
2018-06-08T17:59:02.973Z,65.40
2018-06-08T18:01:38.432Z,60.00
2018-06-08T18:04:13.500Z,60.23
2018-06-08T18:06:48.503Z,60.03
2018-06-08T18:09:23.682Z,56.20
2018-06-08T18:11:59.226Z,54.07
2018-06-08T18:14:34.569Z,56.60
2018-06-08T18:17:10.344Z,53.73
2018-06-08T18:19:45.458Z,54.97
2018-06-08T18:22:21.030Z,52.57
2018-06-08T18:24:56.180Z,50.47
2018-06-08T18:27:31.125Z,51.13
2018-06-08T18:30:07.093Z,48.03
2018-06-08T18:32:42.616Z,48.07
2018-06-08T18:35:17.708Z,48.20
2018-06-08T18:37:52.568Z,47.90
2018-06-08T18:40:27.847Z,45.60
2018-06-08T18:43:02.963Z,47.20
2018-06-08T18:45:38.189Z,45.43
2018-06-08T18:48:13.680Z,46.53
2018-06-08T18:50:48.416Z,47.47
2018-06-08T18:53:23.016Z,47.20
2018-06-08T18:55:57.928Z,46.40
2018-06-08T18:58:33.280Z,47.33
2018-06-08T19:01:08.471Z,48.30
2018-06-08T19:03:43.385Z,46.63
2018-06-08T19:06:18.596Z,43.50
2018-06-08T19:08:53.872Z,48.70
2018-06-08T19:11:23.439Z,48.40
2018-06-08T19:13:58.614Z,49.10
2018-06-08T19:16:33.841Z,47.73
2018-06-08T19:19:09.152Z,45.90
2018-06-08T19:21:44.152Z,47.73
2018-06-08T19:24:19.433Z,48.20
2018-06-08T19:26:54.485Z,47.70
2018-06-08T19:29:29.714Z,46.70
2018-06-08T19:32:04.700Z,50.03
2018-06-08T19:34:39.846Z,50.80
2018-06-08T19:37:15.088Z,50.60
2018-06-08T19:39:50.160Z,54.43
2018-06-08T19:42:25.154Z,53.60
2018-06-08T19:45:00.423Z,53.23
2018-06-08T19:47:35.618Z,52.43
2018-06-08T19:50:10.999Z,53.30
2018-06-08T19:52:46.081Z,57.90
2018-06-08T19:55:21.121Z,54.90
2018-06-08T19:57:56.032Z,60.70
2018-06-08T20:00:31.224Z,59.70
2018-06-08T20:03:06.240Z,61.93
2018-06-08T20:05:41.383Z,61.67
2018-06-08T20:08:16.066Z,63.50
2018-06-08T20:10:51.060Z,61.43
2018-06-08T20:13:26.055Z,63.27
2018-06-08T20:16:01.094Z,59.87
2018-06-08T20:18:36.510Z,59.97
2018-06-08T20:21:11.440Z,63.33
2018-06-08T20:23:46.694Z,62.37
2018-06-08T20:26:21.706Z,66.07
2018-06-08T20:28:57.041Z,65.07
2018-06-08T20:31:32.889Z,64.97
2018-06-08T20:34:11.371Z,67.90
2018-06-08T20:36:53.449Z,66.73
2018-06-08T20:39:28.366Z,67.83
2018-06-08T20:42:03.501Z,64.83
2018-06-08T20:44:38.841Z,66.10
2018-06-08T20:47:13.692Z,66.70
2018-06-08T20:49:48.917Z,67.80
2018-06-08T20:52:24.372Z,66.77
2018-06-08T20:54:59.338Z,72.07
2018-06-08T20:57:34.476Z,66.97
2018-06-08T21:00:09.595Z,69.73
2018-06-08T21:02:44.481Z,72.00
2018-06-08T21:05:19.515Z,71.63
2018-06-08T21:07:54.477Z,75.57
2018-06-08T21:10:29.616Z,75.17
2018-06-08T21:13:04.661Z,70.63
2018-06-08T21:15:40.262Z,74.10
2018-06-08T21:18:15.016Z,78.47
2018-06-08T21:20:49.978Z,81.50
2018-06-08T21:23:24.982Z,79.90
2018-06-08T21:26:00.131Z,81.27
2018-06-08T21:28:35.157Z,79.83
2018-06-08T21:31:09.952Z,75.20
2018-06-08T21:33:44.995Z,75.87
2018-06-08T21:36:20.148Z,73.10
2018-06-08T21:38:55.455Z,74.80
2018-06-08T21:41:30.941Z,78.70
2018-06-08T21:44:06.244Z,71.80
2018-06-08T21:46:41.429Z,82.77
2018-06-08T21:49:16.661Z,79.90
2018-06-08T21:51:51.805Z,77.23
2018-06-08T21:54:26.712Z,80.57
2018-06-08T21:57:01.929Z,82.20
2018-06-08T21:59:36.653Z,83.30
2018-06-08T22:02:11.512Z,83.87
2018-06-08T22:04:46.896Z,79.37
2018-06-08T22:07:22.228Z,82.07
2018-06-08T22:09:57.245Z,78.73
2018-06-08T22:12:32.298Z,86.50
2018-06-08T22:15:07.534Z,90.10
2018-06-08T22:17:42.537Z,86.10
2018-06-08T22:20:17.864Z,86.07
2018-06-08T22:22:52.631Z,88.43
2018-06-08T22:25:27.760Z,86.33
2018-06-08T22:28:02.792Z,83.07
2018-06-08T22:30:37.714Z,92.00
2018-06-08T22:33:12.978Z,99.70
2018-06-08T22:35:48.191Z,88.30
2018-06-08T22:38:23.234Z,94.33
2018-06-08T22:40:56.331Z,92.13
2018-06-08T22:43:31.357Z,92.10
2018-06-08T22:46:06.275Z,89.80
2018-06-08T22:48:41.008Z,90.33
2018-06-08T22:51:15.813Z,88.50
2018-06-08T22:53:50.871Z,89.37
2018-06-08T22:56:25.996Z,92.00
2018-06-08T22:59:00.840Z,90.30
2018-06-08T23:01:35.641Z,95.77
2018-06-08T23:04:10.792Z,92.43
2018-06-08T23:06:46.323Z,90.50
2018-06-08T23:09:20.921Z,90.17
2018-06-08T23:11:55.999Z,90.97
2018-06-08T23:14:30.950Z,84.53
2018-06-08T23:17:06.154Z,87.10
2018-06-08T23:19:41.247Z,88.47
2018-06-08T23:22:15.914Z,89.60
2018-06-08T23:24:51.062Z,88.73
2018-06-08T23:27:25.962Z,84.97
2018-06-08T23:30:00.856Z,90.10
2018-06-08T23:32:35.825Z,87.63
2018-06-08T23:35:10.293Z,84.50
2018-06-08T23:37:45.521Z,86.13
2018-06-08T23:40:20.377Z,91.03
2018-06-08T23:42:54.716Z,87.53
2018-06-08T23:45:29.453Z,90.00
2018-06-08T23:48:04.463Z,89.40
2018-06-08T23:50:39.432Z,86.97
2018-06-08T23:53:14.573Z,85.07
2018-06-08T23:55:49.726Z,83.80
2018-06-08T23:58:24.805Z,87.90
